Ibis Arrow — C6CU6 — position and weather

sailwx.info

Track history (hours):
 
Tides and Currents Weather Stations Pressure Air Temp Water Temp Dewpoint Dewpoint Depression Visibility Wind Speed Wind Dir Waves Ship Positions

Ibis Arrow

Last reported at 2018-Jul-15 18:00 UTC. Time now 2018-Jul-16 19:50 UTC.
Position S 21°48' W 038°54'.

Length 187.5 m; beam 28 m; draft 12.3 m.

Type: Ship. MMSI: 308532000.

Wind from 340 at 19 knots

Barometer 1021.7 mb
Air temperature 25.9 ° C
Visibility: greater than 5.4 NM
Dewpoint 23.0 ° C
Water temperature 25.7 ° C

Date/timePositionNaut miles runAvg speedWind from/ knotsBaromVisibWave heightAir tempDewpointWater temp
2018-Jul-15 18:00S 21°48' W 038°54'20811.5 340 / 191021.7 5.4 25.923.025.7
2018-Jul-15 00:00S 24°00' W 041°48'14512.4 020 / 171020.810.8 23.420.123.6
2018-Jul-14 12:19S 24°13' W 044°26'712.3
2018-Jul-14 11:43S 24°14' W 044°34'1212.3
2018-Jul-14 10:43S 24°16' W 044°47'312.6
2018-Jul-14 10:30S 24°16' W 044°50'2312.6
2018-Jul-14 08:43S 24°18' W 045°15'313.0
2018-Jul-14 08:30S 24°18' W 045°18'612.8
2018-Jul-14 08:00S 24°19' W 045°25'612.7
2018-Jul-14 07:30S 24°19' W 045°32'612.9
2018-Jul-14 07:00S 24°20' W 045°39'612.9
2018-Jul-14 06:30S 24°21' W 045°46'712.8
2018-Jul-14 05:59S 24°22' W 045°53'612.7
2018-Jul-14 05:30S 24°22' W 046°00'612.7
2018-Jul-14 05:00S 24°23' W 046°07'611.7
2018-Jul-14 04:27S 24°22' W 046°14'612.2
2018-Jul-14 04:00S 24°18' W 046°18'611.8
2018-Jul-14 03:30S 24°13' W 046°21'612.4
2018-Jul-14 03:00S 24°07' W 046°23'611.0
2018-Jul-14 02:30S 24°01' W 046°21'3 6.7
2018-Jul-14 01:59S 23°59' W 046°18'  
2018-Jul-11 18:26S 23°58' W 046°18'1 2.6
2018-Jul-11 17:53S 23°59' W 046°17'3 7.9
2018-Jul-11 17:29S 24°00' W 046°20'4 8.7
2018-Jul-11 17:00S 24°04' W 046°22'4 8.5
2018-Jul-11 16:30S 24°09' W 046°22'4 8.3
2018-Jul-11 16:00S 24°13' W 046°23'1 2.3
2018-Jul-11 15:30S 24°12' W 046°23'0 0.7
2018-Jul-11 15:00S 24°11' W 046°23'2 4.6
2018-Jul-11 14:29S 24°14' W 046°23'2 4.7
2018-Jul-11 14:00S 24°16' W 046°23'2 4.7
2018-Jul-11 13:30S 24°18' W 046°24'2 3.8
2018-Jul-11 13:00S 24°20' W 046°24'2 3.8
2018-Jul-11 12:30S 24°22' W 046°24'2 3.9
2018-Jul-11 12:00S 24°24' W 046°25'2 3.7
2018-Jul-11 11:30S 24°26' W 046°25'2 4.0
2018-Jul-11 11:00S 24°28' W 046°26'3 4.6
2018-Jul-11 10:18S 24°31' W 046°26'2 3.1
2018-Jul-11 09:40S 24°29' W 046°26'1 4.5
2018-Jul-11 09:30S 24°28' W 046°26'2 4.6
2018-Jul-11 09:00S 24°26' W 046°25'6 4.3
2018-Jul-11 07:34S 24°20' W 046°24'0 3.6
2018-Jul-11 07:27S 24°20' W 046°24'1 3.1
2018-Jul-11 07:00S 24°21' W 046°24'3 5.5
2018-Jul-11 06:30S 24°24' W 046°25'2 4.0
2018-Jul-11 06:00S 24°26' W 046°25'2 4.1
2018-Jul-11 05:30S 24°24' W 046°25'2 4.2
2018-Jul-11 04:56S 24°21' W 046°25'3 4.2
2018-Jul-11 04:12S 24°18' W 046°24'1 3.5
2018-Jul-11 04:00S 24°17' W 046°24'2 4.4
2018-Jul-11 03:30S 24°15' W 046°24'2 4.1
2018-Jul-11 03:00S 24°13' W 046°23'1 3.0
2018-Jul-11 02:30S 24°12' W 046°22'2 4.5
2018-Jul-11 02:00S 24°10' W 046°23'1 2.6
2018-Jul-11 01:30S 24°11' W 046°24'2 4.9
2018-Jul-11 01:00S 24°13' W 046°22'4 7.2
2018-Jul-11 00:30S 24°16' W 046°20'5 9.3
2018-Jul-11 00:00S 24°19' W 046°17'611.1
2018-Jul-10 23:30S 24°23' W 046°13'47311.4
2018-Jul-09 06:00S 21°00' W 038°30'15913.3 360 / 141018.0 5.4 25.822.125.5
2018-Jul-08 18:00S 18°36' W 037°18'22912.7 050 / 111019.1 5.4 26.823.225.8
2018-Jul-08 00:00S 15°06' W 035°42'8514.2 060 / 181020.110.8 25.321.626.5
2018-Jul-07 18:00S 13°48' W 035°06'38012.7 080 / 201017.8 5.4 26.820.827.5
2018-Jul-06 12:00S 08°00' W 032°30'16413.6 100 / 181016.410.8 27.224.6
2018-Jul-06 00:00S 05°30' W 031°24'   100 / 181016.210.8 25.523.127.1
Track history (hours):
 
Tides and Currents Weather Stations Pressure Air Temp Water Temp Dewpoint Dewpoint Depression Visibility Wind Speed Wind Dir Waves Ship Positions

Ibis Arrow

Last reported at 2018-Jul-15 18:00 UTC. Time now 2018-Jul-16 19:50 UTC.
Position S 21°48' W 038°54'.

Length 187.5 m; beam 28 m; draft 12.3 m.

Type: Ship. MMSI: 308532000.

Wind from 340 at 19 knots

Barometer 1021.7 mb
Air temperature 25.9 ° C
Visibility: greater than 5.4 NM
Dewpoint 23.0 ° C
Water temperature 25.7 ° C

Date/timePositionNaut miles runAvg speedWind from/ knotsBaromVisibWave heightAir tempDewpointWater temp
2018-Jul-15 18:00S 21°48' W 038°54'20811.5 340 / 191021.7 5.4 25.923.025.7
2018-Jul-15 00:00S 24°00' W 041°48'14512.4 020 / 171020.810.8 23.420.123.6
2018-Jul-14 12:19S 24°13' W 044°26'712.3
2018-Jul-14 11:43S 24°14' W 044°34'1212.3
2018-Jul-14 10:43S 24°16' W 044°47'312.6
2018-Jul-14 10:30S 24°16' W 044°50'2312.6
2018-Jul-14 08:43S 24°18' W 045°15'313.0
2018-Jul-14 08:30S 24°18' W 045°18'612.8
2018-Jul-14 08:00S 24°19' W 045°25'612.7
2018-Jul-14 07:30S 24°19' W 045°32'612.9
2018-Jul-14 07:00S 24°20' W 045°39'612.9
2018-Jul-14 06:30S 24°21' W 045°46'712.8
2018-Jul-14 05:59S 24°22' W 045°53'612.7
2018-Jul-14 05:30S 24°22' W 046°00'612.7
2018-Jul-14 05:00S 24°23' W 046°07'611.7
2018-Jul-14 04:27S 24°22' W 046°14'612.2
2018-Jul-14 04:00S 24°18' W 046°18'611.8
2018-Jul-14 03:30S 24°13' W 046°21'612.4
2018-Jul-14 03:00S 24°07' W 046°23'611.0
2018-Jul-14 02:30S 24°01' W 046°21'3 6.7
2018-Jul-14 01:59S 23°59' W 046°18'  
2018-Jul-11 18:26S 23°58' W 046°18'1 2.6
2018-Jul-11 17:53S 23°59' W 046°17'3 7.9
2018-Jul-11 17:29S 24°00' W 046°20'4 8.7
2018-Jul-11 17:00S 24°04' W 046°22'4 8.5
2018-Jul-11 16:30S 24°09' W 046°22'4 8.3
2018-Jul-11 16:00S 24°13' W 046°23'1 2.3
2018-Jul-11 15:30S 24°12' W 046°23'0 0.7
2018-Jul-11 15:00S 24°11' W 046°23'2 4.6
2018-Jul-11 14:29S 24°14' W 046°23'2 4.7
2018-Jul-11 14:00S 24°16' W 046°23'2 4.7
2018-Jul-11 13:30S 24°18' W 046°24'2 3.8
2018-Jul-11 13:00S 24°20' W 046°24'2 3.8
2018-Jul-11 12:30S 24°22' W 046°24'2 3.9
2018-Jul-11 12:00S 24°24' W 046°25'2 3.7
2018-Jul-11 11:30S 24°26' W 046°25'2 4.0
2018-Jul-11 11:00S 24°28' W 046°26'3 4.6
2018-Jul-11 10:18S 24°31' W 046°26'2 3.1
2018-Jul-11 09:40S 24°29' W 046°26'1 4.5
2018-Jul-11 09:30S 24°28' W 046°26'2 4.6
2018-Jul-11 09:00S 24°26' W 046°25'6 4.3
2018-Jul-11 07:34S 24°20' W 046°24'0 3.6
2018-Jul-11 07:27S 24°20' W 046°24'1 3.1
2018-Jul-11 07:00S 24°21' W 046°24'3 5.5
2018-Jul-11 06:30S 24°24' W 046°25'2 4.0
2018-Jul-11 06:00S 24°26' W 046°25'2 4.1
2018-Jul-11 05:30S 24°24' W 046°25'2 4.2
2018-Jul-11 04:56S 24°21' W 046°25'3 4.2
2018-Jul-11 04:12S 24°18' W 046°24'1 3.5
2018-Jul-11 04:00S 24°17' W 046°24'2 4.4
2018-Jul-11 03:30S 24°15' W 046°24'2 4.1
2018-Jul-11 03:00S 24°13' W 046°23'1 3.0
2018-Jul-11 02:30S 24°12' W 046°22'2 4.5
2018-Jul-11 02:00S 24°10' W 046°23'1 2.6
2018-Jul-11 01:30S 24°11' W 046°24'2 4.9
2018-Jul-11 01:00S 24°13' W 046°22'4 7.2
2018-Jul-11 00:30S 24°16' W 046°20'5 9.3
2018-Jul-11 00:00S 24°19' W 046°17'611.1
2018-Jul-10 23:30S 24°23' W 046°13'47311.4
2018-Jul-09 06:00S 21°00' W 038°30'15913.3 360 / 141018.0 5.4 25.822.125.5
2018-Jul-08 18:00S 18°36' W 037°18'22912.7 050 / 111019.1 5.4 26.823.225.8
2018-Jul-08 00:00S 15°06' W 035°42'8514.2 060 / 181020.110.8 25.321.626.5
2018-Jul-07 18:00S 13°48' W 035°06'38012.7 080 / 201017.8 5.4 26.820.827.5
2018-Jul-06 12:00S 08°00' W 032°30'16413.6 100 / 181016.410.8 27.224.6
2018-Jul-06 00:00S 05°30' W 031°24'   100 / 181016.210.8 25.523.127.1

Dump ship's entire track history